Dallas, Texas
Traffic Map
Current Weather Conditions
Dallas, Texas
Few Clouds
Few Clouds
35°
Feels Like: 37°
Wind Chill: 35° Ceiling: Unl
Heat Index: 37° Visibility: 10mi
Dew Point: 19° Wind: 6mph
Humidity: 40% Direction: 230° (SW)
Pressure: 29.98in Gusts: 17mph
Raw Report DataKDAL 251753Z 23005G15KT 10SM FEW055 FEW250 35/19 A2998 RMK AO2 SLP145 T03500194 10350 20239 58011
Traffic Incident Summary
Active as of:
Severity:
Category:
InformationThere was an issue retrieving the traffic information for this location. Please try a different location or try again shortly.
Advertisements
Track Severe Weather on mobile